Time;durP1;ratioP1;P1;durP2;ratioP2;P2;SDS_P1;SDS_P2;PMS_P1;PMS_P2;Temp;Humidity;BMP_temperature;BMP_pressure;BME280_temperature;BME280_humidity;BME280_pressure;Samples;Min_cycle;Max_cycle;Signal;HPM_P1;HPM_P2
2023/04/30 00:00:07;;;;;;;1999.90;999.90;;;8.90;99.90;;;;;;5050932;28;20487;-72
2023/04/30 00:02:34;;;;;;;1999.90;999.90;;;8.90;99.90;;;;;;5049216;28;20464;-71
2023/04/30 00:05:00;;;;;;;1999.90;999.90;;;8.90;99.90;;;;;;5061019;28;20417;-72
2023/04/30 00:07:28;;;;;;;1999.90;999.90;;;8.70;99.90;;;;;;5070640;28;20411;-74
2023/04/30 00:09:55;;;;;;;1999.90;999.90;;;8.80;99.90;;;;;;5070463;28;20424;-74
2023/04/30 00:12:22;;;;;;;1999.90;999.90;;;8.70;99.90;;;;;;5070539;28;20420;-74
2023/04/30 00:14:49;;;;;;;1999.90;999.90;;;8.60;99.90;;;;;;5062296;28;20433;-75
2023/04/30 00:17:15;;;;;;;1999.90;999.90;;;8.50;99.90;;;;;;5061818;28;20422;-74
2023/04/30 00:19:42;;;;;;;1999.90;999.90;;;8.50;99.90;;;;;;5070597;28;20477;-74
2023/04/30 00:22:09;;;;;;;1999.90;999.90;;;8.50;99.90;;;;;;5070365;28;20890;-74
2023/04/30 00:24:37;;;;;;;1999.90;999.90;;;8.50;99.90;;;;;;5070322;28;20878;-74
2023/04/30 00:27:04;;;;;;;1999.90;999.90;;;8.50;99.90;;;;;;5063828;28;20433;-74
2023/04/30 00:29:30;;;;;;;1999.90;999.90;;;8.50;99.90;;;;;;5062330;28;20468;-74
2023/04/30 00:31:57;;;;;;;1999.90;999.90;;;8.50;99.90;;;;;;5071240;28;20889;-73
2023/04/30 00:34:24;;;;;;;1999.90;999.90;;;8.50;99.90;;;;;;5072869;28;20465;-74
2023/04/30 00:36:51;;;;;;;1999.90;999.90;;;8.50;99.90;;;;;;5072066;28;20828;-72
2023/04/30 00:39:18;;;;;;;1999.90;999.90;;;8.40;99.90;;;;;;5061519;28;20440;-74
2023/04/30 00:41:46;;;;;;;1999.90;999.90;;;8.40;99.90;;;;;;5062310;28;20430;-74
2023/04/30 00:44:13;;;;;;;1999.90;999.90;;;8.40;99.90;;;;;;5074491;28;20416;-75
2023/04/30 00:46:39;;;;;;;1999.90;999.90;;;8.40;99.90;;;;;;5074875;28;20469;-74
2023/04/30 00:49:06;;;;;;;1999.90;999.90;;;8.40;99.90;;;;;;5074755;28;21128;-72
2023/04/30 00:51:33;;;;;;;1999.90;999.90;;;8.50;99.90;;;;;;5065186;28;20427;-75
2023/04/30 00:54:02;;;;;;;1999.90;999.90;;;8.50;99.90;;;;;;5063660;28;20427;-72
2023/04/30 00:56:30;;;;;;;1999.90;999.90;;;8.50;99.90;;;;;;5069418;28;20423;-74
2023/04/30 00:58:58;;;;;;;1999.90;999.90;;;8.50;99.90;;;;;;5076249;28;20414;-73
2023/04/30 01:01:27;;;;;;;1999.90;999.90;;;8.40;99.90;;;;;;5067388;28;20948;-74
2023/04/30 01:03:54;;;;;;;1999.90;999.90;;;8.40;99.90;;;;;;5068278;28;20419;-73
2023/04/30 01:06:21;;;;;;;1999.90;999.90;;;8.40;99.90;;;;;;5076561;28;20416;-73
2023/04/30 01:08:49;;;;;;;1999.90;999.90;;;8.30;99.90;;;;;;5076113;28;20934;-73
2023/04/30 01:11:23;;;;;;;1999.90;999.90;;;8.30;99.90;;;;;;5076487;28;20420;-74
2023/04/30 01:13:58;;;;;;;1999.90;999.90;;;8.20;99.90;;;;;;5066127;28;20457;-73
2023/04/30 01:16:30;;;;;;;1999.90;999.90;;;8.20;99.90;;;;;;5060424;28;20454;-73
2023/04/30 01:19:00;;;;;;;1999.90;999.90;;;8.10;99.90;;;;;;5065694;28;20936;-74
2023/04/30 01:21:31;;;;;;;1999.90;999.90;;;8.10;99.90;;;;;;5069653;28;20422;-74
2023/04/30 01:24:15;;;;;;;1999.90;999.90;;;8.00;99.90;;;;;;5073788;28;20407;-73
2023/04/30 01:26:53;;;;;;;1999.90;999.90;;;7.90;99.90;;;;;;5059501;28;20496;-73
2023/04/30 01:29:23;;;;;;;1999.90;999.90;;;7.80;99.90;;;;;;5035953;28;20419;-73
2023/04/30 01:31:50;;;;;;;1999.90;999.90;;;7.70;99.90;;;;;;5035479;28;20414;-74
2023/04/30 01:34:17;;;;;;;1999.90;999.90;;;7.60;99.90;;;;;;5036087;28;20419;-74
2023/04/30 01:37:01;;;;;;;1999.90;999.90;;;7.50;99.90;;;;;;5051805;28;20431;-75
2023/04/30 01:39:46;;;;;;;1999.90;999.90;;;7.40;99.90;;;;;;5058926;28;20433;-74
2023/04/30 01:42:19;;;;;;;1999.90;999.90;;;7.40;99.90;;;;;;5075224;28;20415;-73
2023/04/30 01:45:01;;;;;;;1999.90;999.90;;;7.30;99.90;;;;;;5075654;28;20412;-74
2023/04/30 01:47:35;;;;;;;1999.90;999.90;;;7.30;99.90;;;;;;5076014;28;20411;-74
2023/04/30 01:50:13;;;;;;;1999.90;999.90;;;7.20;99.90;;;;;;5064892;28;20424;-74
2023/04/30 01:52:45;;;;;;;1999.90;999.90;;;7.20;99.90;;;;;;5070424;28;20490;-75
2023/04/30 01:55:14;;;;;;;1999.90;999.90;;;7.20;99.90;;;;;;5075225;28;20498;-75
2023/04/30 01:57:46;;;;;;;1999.90;999.90;;;7.20;99.90;;;;;;5076095;28;20935;-74
2023/04/30 02:00:16;;;;;;;1999.90;999.90;;;7.20;99.90;;;;;;5071193;28;20793;-74
2023/04/30 02:02:43;;;;;;;1999.90;999.90;;;7.20;99.90;;;;;;5067417;28;20494;-74
2023/04/30 02:05:10;;;;;;;1999.90;999.90;;;7.20;99.90;;;;;;5075315;28;20477;-74
2023/04/30 02:07:39;;;;;;;1999.90;999.90;;;7.20;99.90;;;;;;5075154;28;20416;-74
2023/04/30 02:10:07;;;;;;;1999.90;999.90;;;7.20;99.90;;;;;;5075813;28;20481;-78
2023/04/30 02:12:34;;;;;;;1999.90;999.90;;;7.20;99.90;;;;;;5071956;28;20523;-74
2023/04/30 02:15:02;;;;;;;1999.90;999.90;;;7.30;99.90;;;;;;5067264;28;20431;-74
2023/04/30 02:17:30;;;;;;;1999.90;999.90;;;7.30;99.90;;;;;;5075281;28;20408;-73
2023/04/30 02:19:56;;;;;;;1999.90;999.90;;;7.30;99.90;;;;;;5075076;28;20415;-74
2023/04/30 02:22:23;;;;;;;1999.90;999.90;;;7.30;99.90;;;;;;5074704;28;20424;-73
2023/04/30 02:24:50;;;;;;;1999.90;999.90;;;7.30;99.90;;;;;;5072253;28;20457;-74
2023/04/30 02:27:17;;;;;;;1999.90;999.90;;;7.30;99.90;;;;;;5066154;28;20419;-74
2023/04/30 02:29:44;;;;;;;1999.90;999.90;;;7.20;99.90;;;;;;5074362;28;20497;-75
2023/04/30 02:32:11;;;;;;;1999.90;999.90;;;7.30;99.90;;;;;;5072384;28;20781;-73
2023/04/30 02:34:39;;;;;;;1999.90;999.90;;;7.20;99.90;;;;;;5061965;28;20495;-75
2023/04/30 02:37:06;;;;;;;1999.90;999.90;;;7.20;99.90;;;;;;5073126;28;20415;-73
2023/04/30 02:39:32;;;;;;;1999.90;999.90;;;7.10;99.90;;;;;;5075027;28;20461;-73
2023/04/30 02:41:59;;;;;;;1999.90;999.90;;;7.00;99.90;;;;;;5074817;28;20411;-74
2023/04/30 02:44:26;;;;;;;1999.90;999.90;;;7.00;99.90;;;;;;5063026;28;20931;-73
2023/04/30 02:46:53;;;;;;;1999.90;999.90;;;7.00;99.90;;;;;;5070979;28;20449;-73
2023/04/30 02:49:19;;;;;;;1999.90;999.90;;;6.90;99.90;;;;;;5074320;28;20428;-73
2023/04/30 02:51:47;;;;;;;1999.90;999.90;;;6.90;99.90;;;;;;5074335;28;20454;-75
2023/04/30 02:54:14;;;;;;;1999.90;999.90;;;6.90;99.90;;;;;;5074653;28;20416;-72
2023/04/30 02:56:42;;;;;;;1999.90;999.90;;;6.90;99.90;;;;;;5063731;28;20433;-72
2023/04/30 02:59:09;;;;;;;1999.90;999.90;;;6.80;99.90;;;;;;5072623;28;20504;-73
2023/04/30 03:01:36;;;;;;;1999.90;999.90;;;6.70;99.90;;;;;;5064149;28;20429;-72
2023/04/30 03:04:03;;;;;;;1999.90;999.90;;;6.80;99.90;;;;;;5064637;28;20461;-73
2023/04/30 03:06:30;;;;;;;1999.90;999.90;;;6.80;99.90;;;;;;5064823;28;20420;-74
2023/04/30 03:08:59;;;;;;;1999.90;999.90;;;6.70;99.90;;;;;;5071196;28;20489;-72
2023/04/30 03:11:26;;;;;;;1999.90;999.90;;;6.70;99.90;;;;;;5071711;28;20936;-72
2023/04/30 03:13:52;;;;;;;1999.90;999.90;;;6.80;99.90;;;;;;5068127;28;20498;-69
2023/04/30 03:16:21;;;;;;;1999.90;999.90;;;6.70;99.90;;;;;;5064220;28;20465;-73
2023/04/30 03:18:48;;;;;;;1999.90;999.90;;;6.80;99.90;;;;;;5073749;28;20469;-73
2023/04/30 03:21:15;;;;;;;1999.90;999.90;;;6.70;99.90;;;;;;5074269;28;20411;-73
2023/04/30 03:23:42;;;;;;;1999.90;999.90;;;6.80;99.90;;;;;;5073065;28;20520;-70
2023/04/30 03:26:10;;;;;;;1999.90;999.90;;;6.70;99.90;;;;;;5061978;28;20429;-75
2023/04/30 03:28:36;;;;;;;1999.90;999.90;;;6.50;99.90;;;;;;5057165;28;20449;-73
2023/04/30 03:31:04;;;;;;;1999.90;999.90;;;6.30;99.90;;;;;;5050665;28;20429;-73
2023/04/30 03:33:31;;;;;;;1999.90;999.90;;;6.30;99.90;;;;;;5050927;28;20903;-72
2023/04/30 03:35:58;;;;;;;1999.90;999.90;;;6.50;99.90;;;;;;5050983;28;20413;-74
2023/04/30 03:38:25;;;;;;;1999.90;999.90;;;6.50;99.90;;;;;;5053414;28;20435;-74
2023/04/30 03:40:51;;;;;;;1999.90;999.90;;;6.50;99.90;;;;;;5062197;28;20469;-72
2023/04/30 03:43:20;;;;;;;1999.90;999.90;;;6.50;99.90;;;;;;5070707;28;20466;-73
2023/04/30 03:45:46;;;;;;;1999.90;999.90;;;6.50;99.90;;;;;;5070902;28;20494;-73
2023/04/30 03:48:13;;;;;;;1999.90;999.90;;;6.60;99.90;;;;;;5070648;28;20457;-73
2023/04/30 03:50:40;;;;;;;1999.90;999.90;;;6.50;99.90;;;;;;5060558;28;20835;-76
2023/04/30 03:53:07;;;;;;;1999.90;999.90;;;6.50;99.90;;;;;;5054932;28;20512;-73
2023/04/30 03:55:34;;;;;;;1999.90;999.90;;;6.50;99.90;;;;;;5062236;28;20416;-73
2023/04/30 03:58:01;;;;;;;1999.90;999.90;;;6.40;99.90;;;;;;5070274;28;20419;-72
2023/04/30 04:00:29;;;;;;;1999.90;999.90;;;6.50;99.90;;;;;;5070646;28;20443;-73
2023/04/30 04:02:57;;;;;;;1999.90;999.90;;;6.50;99.90;;;;;;5059115;28;20431;-73
2023/04/30 04:05:24;;;;;;;1999.90;999.90;;;6.50;99.90;;;;;;5053927;28;20419;-73
2023/04/30 04:07:51;;;;;;;1999.90;999.90;;;6.60;99.90;;;;;;5070406;28;20796;-73
2023/04/30 04:10:17;;;;;;;1999.90;999.90;;;6.70;99.90;;;;;;5070466;28;20481;-74
2023/04/30 04:12:44;;;;;;;1999.90;999.90;;;6.70;99.90;;;;;;5069991;28;20419;-74
2023/04/30 04:15:12;;;;;;;1999.90;999.90;;;6.80;99.90;;;;;;5060254;28;20864;-73
2023/04/30 04:17:40;;;;;;;1999.90;999.90;;;6.70;99.90;;;;;;5069667;28;20519;-75
2023/04/30 04:20:08;;;;;;;1999.90;999.90;;;6.70;99.90;;;;;;5070198;28;20407;-75
2023/04/30 04:22:35;;;;;;;1999.90;999.90;;;6.70;99.90;;;;;;5070366;28;20447;-74
2023/04/30 04:25:02;;;;;;;1999.90;999.90;;;6.80;99.90;;;;;;5070225;28;20417;-74
2023/04/30 04:27:28;;;;;;;1999.90;999.90;;;6.90;99.90;;;;;;5057866;28;20486;-74
2023/04/30 04:29:55;;;;;;;1999.90;999.90;;;7.10;99.90;;;;;;5057897;28;20503;-75
2023/04/30 04:32:23;;;;;;;1999.90;999.90;;;7.30;99.90;;;;;;5061218;28;20420;-74
2023/04/30 04:34:53;;;;;;;1999.90;999.90;;;7.70;99.90;;;;;;5070179;28;20831;-74
2023/04/30 04:37:19;;;;;;;1999.90;999.90;;;7.90;99.90;;;;;;5066638;28;20416;-73
2023/04/30 04:39:46;;;;;;;1999.90;999.90;;;8.20;99.90;;;;;;5058241;28;20475;-74
2023/04/30 04:42:12;;;;;;;1999.90;999.90;;;8.50;99.90;;;;;;5068304;28;20540;-74
2023/04/30 04:44:40;;;;;;;1999.90;999.90;;;8.70;99.90;;;;;;5070325;28;20445;-74
2023/04/30 04:47:07;;;;;;;1999.90;999.90;;;8.80;99.90;;;;;;5070110;28;20879;-73
2023/04/30 04:49:33;;;;;;;1999.90;999.90;;;9.00;99.90;;;;;;5064058;28;20437;-72
2023/04/30 04:52:02;;;;;;;1999.90;999.90;;;8.90;99.90;;;;;;5058511;28;20421;-71
2023/04/30 04:54:30;;;;;;;1999.90;999.90;;;8.90;99.90;;;;;;5050461;28;20483;-72
2023/04/30 04:56:56;;;;;;;1999.90;999.90;;;9.00;99.90;;;;;;5050185;28;20413;-74
2023/04/30 04:59:23;;;;;;;1999.90;999.90;;;9.10;99.90;;;;;;5050058;28;20830;-72
2023/04/30 05:01:50;;;;;;;1999.90;999.90;;;9.30;99.90;;;;;;5049564;28;20915;-71
2023/04/30 05:04:16;;;;;;;1999.90;999.90;;;9.10;99.90;;;;;;5060253;28;20417;-72
2023/04/30 05:06:43;;;;;;;1999.90;999.90;;;9.10;99.90;;;;;;5070371;28;21056;-72
2023/04/30 05:09:11;;;;;;;1999.90;999.90;;;9.10;99.90;;;;;;5070149;28;20411;-73
2023/04/30 05:11:38;;;;;;;1999.90;999.90;;;9.30;99.90;;;;;;5069892;28;20477;-73
2023/04/30 05:14:04;;;;;;;1999.90;999.90;;;9.20;99.90;;;;;;5061798;28;20924;-73
2023/04/30 05:16:31;;;;;;;1999.90;999.90;;;9.10;99.90;;;;;;5061544;28;20427;-72
2023/04/30 05:18:58;;;;;;;1999.90;999.90;;;8.90;99.90;;;;;;5069386;28;20892;-73
2023/04/30 05:21:28;;;;;;;1999.90;999.90;;;9.10;99.90;;;;;;5070246;28;20404;-76
2023/04/30 05:23:54;;;;;;;1999.90;999.90;;;9.20;99.90;;;;;;5070264;28;20419;-74
2023/04/30 05:26:23;;;;;;;1999.90;999.90;;;9.20;99.90;;;;;;5060553;28;20439;-74
2023/04/30 05:28:51;;;;;;;1999.90;999.90;;;9.20;99.90;;;;;;5063220;28;20423;-74
2023/04/30 05:31:17;;;;;;;1999.90;999.90;;;9.30;99.90;;;;;;5073731;28;20423;-75
2023/04/30 05:33:44;;;;;;;1999.90;999.90;;;9.30;99.90;;;;;;5074316;28;20415;-72
2023/04/30 05:36:11;;;;;;;1999.90;999.90;;;9.00;99.90;;;;;;5074725;28;20419;-75
2023/04/30 05:38:37;;;;;;;1999.90;999.90;;;8.90;99.90;;;;;;5065875;28;20954;-75
2023/04/30 05:41:04;;;;;;;1999.90;999.90;;;8.80;99.90;;;;;;5066175;28;20477;-72
2023/04/30 05:43:32;;;;;;;1999.90;999.90;;;8.80;99.90;;;;;;5074730;28;20411;-72
2023/04/30 05:45:59;;;;;;;1999.90;999.90;;;9.00;99.90;;;;;;5074615;28;20441;-73
2023/04/30 05:48:26;;;;;;;1999.90;999.90;;;9.20;99.90;;;;;;5073299;28;20419;-74
2023/04/30 05:50:53;;;;;;;1999.90;999.90;;;9.20;99.90;;;;;;5068049;28;20481;-75
2023/04/30 05:53:20;;;;;;;1999.90;999.90;;;9.10;99.90;;;;;;5066580;28;20959;-75
2023/04/30 05:55:47;;;;;;;1999.90;999.90;;;9.00;99.90;;;;;;5075392;28;20465;-73
2023/04/30 05:58:14;;;;;;;1999.90;999.90;;;8.80;99.90;;;;;;5075324;28;20419;-73
2023/04/30 06:00:42;;;;;;;1999.90;999.90;;;8.50;99.90;;;;;;5075418;28;20443;-74
2023/04/30 06:03:09;;;;;;;1999.90;999.90;;;8.40;99.90;;;;;;5070463;28;20431;-73
2023/04/30 06:05:36;;;;;;;1999.90;999.90;;;8.30;99.90;;;;;;5067953;28;20418;-73
2023/04/30 06:08:02;;;;;;;1999.90;999.90;;;8.30;99.90;;;;;;5074797;28;20502;-75
2023/04/30 06:10:30;;;;;;;1999.90;999.90;;;8.20;99.90;;;;;;5073056;28;20423;-73
2023/04/30 06:12:57;;;;;;;1999.90;999.90;;;8.40;99.90;;;;;;5072538;28;20424;-73
2023/04/30 06:15:24;;;;;;;1999.90;999.90;;;8.70;99.90;;;;;;5063176;28;20429;-72
2023/04/30 06:17:52;;;;;;;1999.90;999.90;;;9.10;99.90;;;;;;5066287;28;20912;-76
2023/04/30 06:20:18;;;;;;;1999.90;999.90;;;9.10;99.90;;;;;;5072427;28;20461;-73
2023/04/30 06:22:45;;;;;;;1999.90;999.90;;;9.00;99.90;;;;;;5072452;28;20771;-73
2023/04/30 06:25:12;;;;;;;1999.90;999.90;;;8.90;99.90;;;;;;5072454;28;20431;-74
2023/04/30 06:27:38;;;;;;;1999.90;999.90;;;9.10;99.90;;;;;;5063033;28;20851;-73
2023/04/30 06:30:06;;;;;;;1999.90;999.90;;;9.40;99.90;;;;;;5063692;28;20432;-76
2023/04/30 06:32:33;;;;;;;1999.90;999.90;;;9.40;99.90;;;;;;5057357;28;20411;-73
2023/04/30 06:35:01;;;;;;;1999.90;999.90;;;9.30;99.90;;;;;;5072892;28;20411;-74
2023/04/30 06:37:28;;;;;;;1999.90;999.90;;;9.20;99.90;;;;;;5072053;28;20851;-75
2023/04/30 06:39:54;;;;;;;1999.90;999.90;;;9.30;99.90;;;;;;5054550;28;20437;-73
2023/04/30 06:42:21;;;;;;;1999.90;999.90;;;9.40;99.90;;;;;;5061815;28;20475;-73
2023/04/30 06:44:48;;;;;;;1999.90;999.90;;;9.20;99.90;;;;;;5071946;28;20762;-69
2023/04/30 06:47:14;;;;;;;1999.90;999.90;;;9.50;99.90;;;;;;5072056;28;20411;-69
2023/04/30 06:49:41;;;;;;;1999.90;999.90;;;9.60;99.90;;;;;;5072077;28;20465;-73
2023/04/30 06:52:09;;;;;;;1999.90;999.90;;;9.70;99.90;;;;;;5059727;28;20429;-73
2023/04/30 06:54:35;;;;;;;1999.90;999.90;;;10.00;99.90;;;;;;5031969;28;20411;-74
2023/04/30 06:57:02;;;;;;;1999.90;999.90;;;9.90;99.90;;;;;;5032337;28;20421;-73
2023/04/30 06:59:30;;;;;;;1999.90;999.90;;;10.10;99.90;;;;;;5062462;28;20413;-72
2023/04/30 07:01:56;;;;;;;1999.90;999.90;;;10.40;99.90;;;;;;5071551;28;20801;-73
2023/04/30 07:04:24;;;;;;;1999.90;999.90;;;10.50;99.90;;;;;;5059857;28;20493;-73
2023/04/30 07:06:51;;;;;;;1999.90;999.90;;;10.60;99.90;;;;;;5065514;28;20782;-74
2023/04/30 07:09:19;;;;;;;1999.90;999.90;;;10.70;99.90;;;;;;5071549;28;20419;-73
2023/04/30 07:11:46;;;;;;;1999.90;999.90;;;10.70;99.90;;;;;;5071394;28;20473;-73
2023/04/30 07:14:12;;;;;;;1999.90;999.90;;;10.80;99.90;;;;;;5071810;28;20416;-73
2023/04/30 07:16:39;;;;;;;1999.90;999.90;;;11.10;99.90;;;;;;5059369;28;20567;-72
2023/04/30 07:19:06;;;;;;;1999.90;999.90;;;11.40;99.90;;;;;;5067305;28;20825;-73
2023/04/30 07:21:32;;;;;;;1999.90;999.90;;;11.70;99.90;;;;;;5071453;28;20461;-73
2023/04/30 07:23:59;;;;;;;1999.90;999.90;;;11.40;99.90;;;;;;5071271;28;20469;-72
2023/04/30 07:26:27;;;;;;;1999.90;999.90;;;11.20;99.90;;;;;;5071532;28;20419;-72
2023/04/30 07:28:53;;;;;;;1999.90;999.90;;;11.50;99.90;;;;;;5057922;28;20437;-73
2023/04/30 07:31:20;;;;;;;1999.90;999.90;;;11.30;99.90;;;;;;5050733;28;20483;-73
2023/04/30 07:33:47;;;;;;;1999.90;999.90;;;11.40;99.90;;;;;;5062848;28;20525;-72
2023/04/30 07:36:14;;;;;;;1999.90;999.90;;;11.40;99.90;;;;;;5071327;28;20446;-73
2023/04/30 07:38:41;;;;;;;1999.90;999.90;;;10.90;99.90;;;;;;5070945;28;20409;-73
2023/04/30 07:41:08;;;;;;;1999.90;999.90;;;11.30;99.90;;;;;;5061729;28;20431;-72
2023/04/30 07:43:36;;;;;;;1999.90;999.90;;;11.20;99.90;;;;;;5062533;28;20427;-73
2023/04/30 07:46:03;;;;;;;1999.90;999.90;;;11.70;99.90;;;;;;5070985;28;20491;-74
2023/04/30 07:48:30;;;;;;;1999.90;999.90;;;11.90;99.90;;;;;;5071071;28;20419;-74
2023/04/30 07:50:57;;;;;;;1999.90;999.90;;;11.60;99.50;;;;;;5072294;28;20434;-73
2023/04/30 07:53:23;;;;;;;1999.90;999.90;;;11.20;99.90;;;;;;5060610;28;20421;-73
2023/04/30 07:55:50;;;;;;;1999.90;999.90;;;11.20;99.90;;;;;;5071362;28;20969;-73
2023/04/30 07:58:17;;;;;;;1999.90;999.90;;;11.30;99.90;;;;;;5072246;28;20457;-74
2023/04/30 08:00:45;;;;;;;1999.90;999.90;;;11.20;99.90;;;;;;5071788;28;20416;-74
2023/04/30 08:03:12;;;;;;;1999.90;999.90;;;10.90;99.90;;;;;;5068561;28;20460;-74
2023/04/30 08:05:39;;;;;;;1999.90;999.90;;;11.00;99.90;;;;;;5052170;28;20496;-73
2023/04/30 08:08:06;;;;;;;1999.90;999.90;;;11.00;99.90;;;;;;5051806;28;20457;-74
2023/04/30 08:10:33;;;;;;;1999.90;999.90;;;11.00;99.90;;;;;;5050630;28;20506;-73
2023/04/30 08:13:00;;;;;;;1999.90;999.90;;;10.80;99.90;;;;;;5050441;28;20426;-74
2023/04/30 08:15:27;;;;;;;1999.90;999.90;;;11.20;99.90;;;;;;5047239;28;20433;-72
2023/04/30 08:17:55;;;;;;;1999.90;999.90;;;11.50;99.90;;;;;;5058469;28;20424;-73
2023/04/30 08:20:22;;;;;;;1999.90;999.90;;;11.60;99.90;;;;;;5067992;28;20416;-73
2023/04/30 08:22:49;;;;;;;1999.90;999.90;;;11.70;99.90;;;;;;5070561;28;20443;-73
2023/04/30 08:25:15;;;;;;;1999.90;999.90;;;11.90;99.90;;;;;;5070526;28;20771;-74
2023/04/30 08:27:42;;;;;;;1999.90;999.90;;;12.20;99.90;;;;;;5065833;28;20445;-73
2023/04/30 08:30:09;;;;;;;1999.90;999.90;;;12.50;99.40;;;;;;5058412;28;20954;-74
2023/04/30 08:32:36;;;;;;;1999.90;999.90;;;12.80;99.70;;;;;;5069649;28;20427;-73
2023/04/30 08:35:05;;;;;;;1999.90;999.90;;;12.70;99.00;;;;;;5070200;28;20894;-74
2023/04/30 08:37:32;;;;;;;1999.90;999.90;;;13.30;97.40;;;;;;5070229;28;20415;-73
2023/04/30 08:39:59;;;;;;;1999.90;999.90;;;12.90;98.30;;;;;;5063387;28;20437;-73
2023/04/30 08:42:30;;;;;;;1999.90;999.90;;;12.50;98.80;;;;;;5059958;28;20458;-73
2023/04/30 08:44:58;;;;;;;1999.90;999.90;;;12.30;99.80;;;;;;5070354;28;20469;-71
2023/04/30 08:47:26;;;;;;;1999.90;999.90;;;12.30;99.40;;;;;;5070778;28;20829;-72
2023/04/30 08:49:53;;;;;;;1999.90;999.90;;;12.50;99.90;;;;;;5070642;28;20836;-72
2023/04/30 08:52:22;;;;;;;1999.90;999.90;;;12.60;99.90;;;;;;5067436;28;20427;-70
2023/04/30 08:54:53;;;;;;;1999.90;999.90;;;12.80;99.90;;;;;;5063514;28;20482;-71
2023/04/30 08:57:19;;;;;;;1999.90;999.90;;;12.70;99.50;;;;;;5070924;28;20411;-72
2023/04/30 08:59:46;;;;;;;1999.90;999.90;;;13.00;99.10;;;;;;5070462;28;20461;-70
2023/04/30 09:02:13;;;;;;;1999.90;999.90;;;13.10;98.40;;;;;;5070083;28;20780;-72
2023/04/30 09:04:39;;;;;;;1999.90;999.90;;;13.20;98.40;;;;;;5064081;28;20431;-74
2023/04/30 09:07:07;;;;;;;1999.90;999.90;;;13.20;97.30;;;;;;5065479;28;20422;-72
2023/04/30 09:09:39;;;;;;;1999.90;999.90;;;12.80;98.40;;;;;;5074026;28;20419;-72
2023/04/30 09:12:14;;;;;;;1999.90;999.90;;;12.70;98.10;;;;;;5073674;28;20987;-72
2023/04/30 09:14:41;;;;;;;1999.90;999.90;;;12.80;99.40;;;;;;5074627;28;20777;-73
2023/04/30 09:17:08;;;;;;;1999.90;999.90;;;12.90;99.20;;;;;;5064492;28;20781;-72
2023/04/30 09:19:36;;;;;;;1999.90;999.90;;;12.60;98.90;;;;;;5073385;28;20502;-72
2023/04/30 09:22:29;;;;;;;1999.90;999.90;;;13.20;98.20;;;;;;5074345;28;20836;-72
2023/04/30 09:24:57;;;;;;;1999.90;999.90;;;13.50;98.00;;;;;;5026566;28;20423;-71
2023/04/30 09:27:24;;;;;;;1999.90;999.90;;;13.50;97.60;;;;;;5069941;28;20830;-72
2023/04/30 09:29:51;;;;;;;1999.90;999.90;;;13.40;97.40;;;;;;5065783;28;21031;-73
2023/04/30 09:32:18;;;;;;;1999.90;999.90;;;13.40;97.30;;;;;;5074375;28;20917;-72
2023/04/30 09:34:44;;;;;;;1999.90;999.90;;;13.50;97.70;;;;;;5074302;28;20523;-72
2023/04/30 09:37:11;;;;;;;1999.90;999.90;;;13.60;96.70;;;;;;5074113;28;20423;-73
2023/04/30 09:39:49;;;;;;;1999.90;999.90;;;13.40;97.30;;;;;;5070742;28;20437;-72
2023/04/30 09:42:18;;;;;;;1999.90;999.90;;;13.10;96.80;;;;;;5064847;28;20976;-73
2023/04/30 09:44:45;;;;;;;1999.90;999.90;;;13.20;98.50;;;;;;5073629;28;20467;-73
2023/04/30 09:47:13;;;;;;;1999.90;999.90;;;13.40;97.30;;;;;;5073303;28;20445;-74
2023/04/30 09:49:42;;;;;;;1999.90;999.90;;;13.40;97.40;;;;;;5075167;28;20862;-75
2023/04/30 09:52:10;;;;;;;1999.90;999.90;;;13.00;98.10;;;;;;5068386;28;20467;-74
2023/04/30 09:54:37;;;;;;;1999.90;999.90;;;12.90;97.70;;;;;;5064843;28;20496;-74
2023/04/30 09:57:04;;;;;;;1999.90;999.90;;;13.00;98.80;;;;;;5072929;28;20427;-71
2023/04/30 09:59:34;;;;;;;1999.90;999.90;;;13.20;99.60;;;;;;5072946;28;20473;-75
2023/04/30 10:02:01;;;;;;;1999.90;999.90;;;13.90;97.70;;;;;;5072872;28;20419;-74
2023/04/30 10:04:30;;;;;;;1999.90;999.90;;;13.80;96.50;;;;;;5065578;28;20489;-74
2023/04/30 10:06:58;;;;;;;1999.90;999.90;;;13.10;97.70;;;;;;5065951;28;20451;-74
2023/04/30 10:09:28;;;;;;;1999.90;999.90;;;13.00;98.00;;;;;;5072857;28;20848;-74
2023/04/30 10:11:57;;;;;;;1999.90;999.90;;;13.30;97.10;;;;;;5060463;28;20421;-72
2023/04/30 10:14:29;;;;;;;1999.90;999.90;;;13.60;97.10;;;;;;5068582;28;20427;-74
2023/04/30 10:17:02;;;;;;;1999.90;999.90;;;13.70;97.50;;;;;;5061783;28;20429;-75
2023/04/30 10:19:31;;;;;;;1999.90;999.90;;;13.70;96.20;;;;;;5069963;28;20411;-74
2023/04/30 10:21:59;;;;;;;1999.90;999.90;;;13.30;97.20;;;;;;5072518;28;20487;-74
2023/04/30 10:24:27;;;;;;;1999.90;999.90;;;13.70;96.20;;;;;;5072510;28;20411;-74
2023/04/30 10:26:56;;;;;;;1999.90;999.90;;;13.80;95.60;;;;;;5072355;28;20420;-74
2023/04/30 10:29:22;;;;;;;1999.90;999.90;;;13.70;95.00;;;;;;5060302;28;20478;-74
2023/04/30 10:31:51;;;;;;;1999.90;999.90;;;13.60;96.10;;;;;;5072089;28;20915;-74
2023/04/30 10:34:34;;;;;;;1999.90;999.90;;;13.50;95.90;;;;;;5072436;28;20443;-74
2023/04/30 10:37:05;;;;;;;1999.90;999.90;;;13.90;95.20;;;;;;5072313;28;20422;-74
2023/04/30 10:39:35;;;;;;;1999.90;999.90;;;13.80;95.20;;;;;;5069403;28;20437;-74
2023/04/30 10:42:02;;;;;;;1999.90;999.90;;;14.00;95.50;;;;;;5063480;28;20408;-74
2023/04/30 10:44:32;;;;;;;1999.90;999.90;;;14.10;93.40;;;;;;5071919;28;20477;-73
2023/04/30 10:47:00;;;;;;;1999.90;999.90;;;14.00;94.50;;;;;;5072071;28;20771;-74
2023/04/30 10:49:28;;;;;;;1999.90;999.90;;;14.00;93.30;;;;;;5071826;28;20908;-73
2023/04/30 10:51:57;;;;;;;1999.90;999.90;;;13.90;94.70;;;;;;5065217;28;20428;-71
2023/04/30 10:54:27;;;;;;;1999.90;999.90;;;14.30;94.20;;;;;;5060087;28;20495;-72
2023/04/30 10:56:55;;;;;;;1999.90;999.90;;;14.40;94.30;;;;;;5071548;28;20424;-72
2023/04/30 10:59:23;;;;;;;1999.90;999.90;;;14.50;92.50;;;;;;5071848;28;20863;-74
2023/04/30 11:01:58;;;;;;;1999.90;999.90;;;14.40;93.00;;;;;;5071911;28;20438;-74
2023/04/30 11:04:25;;;;;;;1999.90;999.90;;;14.10;94.40;;;;;;5066928;28;20435;-74
2023/04/30 11:07:10;;;;;;;1999.90;999.90;;;14.30;94.20;;;;;;5063688;28;20419;-74
2023/04/30 11:09:39;;;;;;;1999.90;999.90;;;14.40;94.20;;;;;;5071593;28;20427;-73
2023/04/30 11:12:12;;;;;;;1999.90;999.90;;;14.50;94.60;;;;;;5071197;28;20840;-74
2023/04/30 11:14:41;;;;;;;1999.90;999.90;;;14.50;95.30;;;;;;5063134;28;20487;-74
2023/04/30 11:17:09;;;;;;;1999.90;999.90;;;14.40;95.10;;;;;;5063062;28;20534;-74
2023/04/30 11:19:42;;;;;;;1999.90;999.90;;;14.10;96.60;;;;;;5071348;28;20422;-73
2023/04/30 11:22:26;;;;;;;1999.90;999.90;;;14.80;96.30;;;;;;5071845;28;20792;-72
2023/04/30 11:25:00;;;;;;;1999.90;999.90;;;15.00;96.00;;;;;;5060060;28;20531;-73
2023/04/30 11:27:28;;;;;;;1999.90;999.90;;;15.30;96.10;;;;;;5059289;28;20788;-73
2023/04/30 11:29:56;;;;;;;1999.90;999.90;;;15.40;96.90;;;;;;5071399;28;20408;-72
2023/04/30 11:32:24;;;;;;;1999.90;999.90;;;15.50;95.90;;;;;;5067485;28;20424;-73
2023/04/30 11:34:51;;;;;;;1999.90;999.90;;;15.70;94.80;;;;;;5051358;28;20411;-72
2023/04/30 11:37:20;;;;;;;1999.90;999.90;;;15.80;94.80;;;;;;5051284;28;20425;-71
2023/04/30 11:39:49;;;;;;;1999.90;999.90;;;15.70;94.60;;;;;;5051409;28;20417;-72
2023/04/30 11:42:19;;;;;;;1999.90;999.90;;;15.90;93.70;;;;;;5047052;28;20428;-72
2023/04/30 11:44:45;;;;;;;1999.90;999.90;;;15.70;93.70;;;;;;5045405;28;20437;-74
2023/04/30 11:47:13;;;;;;;1999.90;999.90;;;15.70;93.70;;;;;;5043446;28;20482;-74
2023/04/30 11:49:40;;;;;;;1999.90;999.90;;;15.80;92.50;;;;;;5044805;28;20431;-73
2023/04/30 11:52:08;;;;;;;1999.90;999.90;;;15.60;92.30;;;;;;5049055;28;20487;-73
2023/04/30 11:54:37;;;;;;;1999.90;999.90;;;15.70;93.20;;;;;;5045953;28;20448;-74
2023/04/30 11:57:05;;;;;;;1999.90;999.90;;;15.90;93.20;;;;;;5044704;28;20520;-73
2023/04/30 11:59:39;;;;;;;1999.90;999.90;;;16.00;93.00;;;;;;5044654;28;20468;-74
2023/04/30 12:02:06;;;;;;;1999.90;999.90;;;16.00;92.40;;;;;;5047288;28;20489;-72
2023/04/30 12:04:33;;;;;;;1999.90;999.90;;;15.50;92.60;;;;;;5050144;28;20413;-73
2023/04/30 12:07:01;;;;;;;1999.90;999.90;;;15.30;93.00;;;;;;5046818;28;20477;-74